sensor_id;sensor_type;location;lat;lon;timestamp;temperature;humidity
9373;DHT22;10838;52.350;9.790;2023-05-14T00:00:11;13.40;91.90
9373;DHT22;10838;52.350;9.790;2023-05-14T00:02:38;13.30;92.00
9373;DHT22;10838;52.350;9.790;2023-05-14T00:05:05;13.30;92.00
9373;DHT22;10838;52.350;9.790;2023-05-14T00:07:33;13.20;92.00
9373;DHT22;10838;52.350;9.790;2023-05-14T00:10:00;13.20;92.00
9373;DHT22;10838;52.350;9.790;2023-05-14T00:12:26;13.20;92.00
9373;DHT22;10838;52.350;9.790;2023-05-14T00:14:54;13.10;92.00
9373;DHT22;10838;52.350;9.790;2023-05-14T00:17:21;13.10;92.00
9373;DHT22;10838;52.350;9.790;2023-05-14T00:19:47;13.00;92.00
9373;DHT22;10838;52.350;9.790;2023-05-14T00:22:14;13.00;92.10
9373;DHT22;10838;52.350;9.790;2023-05-14T00:24:42;12.90;92.00
9373;DHT22;10838;52.350;9.790;2023-05-14T00:27:08;12.90;92.10
9373;DHT22;10838;52.350;9.790;2023-05-14T00:29:35;12.90;92.10
9373;DHT22;10838;52.350;9.790;2023-05-14T00:32:02;12.90;92.10
9373;DHT22;10838;52.350;9.790;2023-05-14T00:34:29;12.80;92.10
9373;DHT22;10838;52.350;9.790;2023-05-14T00:36:55;12.80;92.10
9373;DHT22;10838;52.350;9.790;2023-05-14T00:39:22;12.70;92.10
9373;DHT22;10838;52.350;9.790;2023-05-14T00:41:50;12.70;92.10
9373;DHT22;10838;52.350;9.790;2023-05-14T00:44:16;12.70;92.10
9373;DHT22;10838;52.350;9.790;2023-05-14T00:46:43;12.60;92.10
9373;DHT22;10838;52.350;9.790;2023-05-14T00:49:09;12.60;92.10
9373;DHT22;10838;52.350;9.790;2023-05-14T00:51:36;12.60;92.10
9373;DHT22;10838;52.350;9.790;2023-05-14T00:54:03;12.50;92.10
9373;DHT22;10838;52.350;9.790;2023-05-14T00:56:30;12.50;92.10
9373;DHT22;10838;52.350;9.790;2023-05-14T00:58:58;12.50;92.20
9373;DHT22;10838;52.350;9.790;2023-05-14T01:01:25;12.40;92.20
9373;DHT22;10838;52.350;9.790;2023-05-14T01:03:53;12.40;92.20
9373;DHT22;10838;52.350;9.790;2023-05-14T01:06:27;12.30;92.20
9373;DHT22;10838;52.350;9.790;2023-05-14T01:09:00;12.30;92.20
9373;DHT22;10838;52.350;9.790;2023-05-14T01:11:30;12.20;92.20
9373;DHT22;10838;52.350;9.790;2023-05-14T01:14:04;12.20;92.20
9373;DHT22;10838;52.350;9.790;2023-05-14T01:16:33;12.20;92.20
9373;DHT22;10838;52.350;9.790;2023-05-14T01:19:04;12.20;92.20
9373;DHT22;10838;52.350;9.790;2023-05-14T01:21:37;12.10;92.20
9373;DHT22;10838;52.350;9.790;2023-05-14T01:24:05;12.10;92.20
9373;DHT22;10838;52.350;9.790;2023-05-14T01:26:32;12.00;92.20
9373;DHT22;10838;52.350;9.790;2023-05-14T01:29:03;12.00;92.30
9373;DHT22;10838;52.350;9.790;2023-05-14T01:31:34;12.00;92.30
9373;DHT22;10838;52.350;9.790;2023-05-14T01:34:03;12.00;92.30
9373;DHT22;10838;52.350;9.790;2023-05-14T01:36:30;11.90;92.30
9373;DHT22;10838;52.350;9.790;2023-05-14T01:38:59;11.80;92.40
9373;DHT22;10838;52.350;9.790;2023-05-14T01:41:27;11.80;92.40
9373;DHT22;10838;52.350;9.790;2023-05-14T01:43:55;11.80;92.40
9373;DHT22;10838;52.350;9.790;2023-05-14T01:46:22;11.80;92.40
9373;DHT22;10838;52.350;9.790;2023-05-14T01:48:49;11.70;92.40
9373;DHT22;10838;52.350;9.790;2023-05-14T01:51:16;11.70;92.50
9373;DHT22;10838;52.350;9.790;2023-05-14T01:53:42;11.60;92.50
9373;DHT22;10838;52.350;9.790;2023-05-14T01:56:10;11.70;92.50
9373;DHT22;10838;52.350;9.790;2023-05-14T01:58:36;11.60;92.50
9373;DHT22;10838;52.350;9.790;2023-05-14T02:01:03;11.60;92.60
9373;DHT22;10838;52.350;9.790;2023-05-14T02:03:30;11.50;92.60
9373;DHT22;10838;52.350;9.790;2023-05-14T02:05:56;11.50;92.60
9373;DHT22;10838;52.350;9.790;2023-05-14T02:08:23;11.50;92.60
9373;DHT22;10838;52.350;9.790;2023-05-14T02:10:49;11.40;92.60
9373;DHT22;10838;52.350;9.790;2023-05-14T02:13:18;11.40;92.60
9373;DHT22;10838;52.350;9.790;2023-05-14T02:15:45;11.40;92.70
9373;DHT22;10838;52.350;9.790;2023-05-14T02:18:11;11.40;92.70
9373;DHT22;10838;52.350;9.790;2023-05-14T02:20:38;11.40;92.70
9373;DHT22;10838;52.350;9.790;2023-05-14T02:23:05;11.40;92.70
9373;DHT22;10838;52.350;9.790;2023-05-14T02:25:31;11.30;92.70
9373;DHT22;10838;52.350;9.790;2023-05-14T02:27:58;11.30;92.70
9373;DHT22;10838;52.350;9.790;2023-05-14T02:30:26;11.30;92.70
9373;DHT22;10838;52.350;9.790;2023-05-14T02:32:54;11.30;92.70
9373;DHT22;10838;52.350;9.790;2023-05-14T02:35:20;11.20;92.70
9373;DHT22;10838;52.350;9.790;2023-05-14T02:37:47;11.20;92.70
9373;DHT22;10838;52.350;9.790;2023-05-14T02:40:14;11.20;92.70
9373;DHT22;10838;52.350;9.790;2023-05-14T02:42:40;11.20;92.70
9373;DHT22;10838;52.350;9.790;2023-05-14T02:45:07;11.10;92.70
9373;DHT22;10838;52.350;9.790;2023-05-14T02:47:35;11.10;92.70
9373;DHT22;10838;52.350;9.790;2023-05-14T02:50:02;11.10;92.70
9373;DHT22;10838;52.350;9.790;2023-05-14T02:52:30;11.00;92.70
9373;DHT22;10838;52.350;9.790;2023-05-14T02:54:57;11.00;92.80
9373;DHT22;10838;52.350;9.790;2023-05-14T02:57:23;11.00;92.80
9373;DHT22;10838;52.350;9.790;2023-05-14T02:59:50;11.00;92.90
9373;DHT22;10838;52.350;9.790;2023-05-14T03:02:17;10.90;92.90
9373;DHT22;10838;52.350;9.790;2023-05-14T03:04:44;10.90;92.90
9373;DHT22;10838;52.350;9.790;2023-05-14T03:07:11;10.80;92.90
9373;DHT22;10838;52.350;9.790;2023-05-14T03:09:38;10.80;92.90
9373;DHT22;10838;52.350;9.790;2023-05-14T03:12:05;10.80;92.90
9373;DHT22;10838;52.350;9.790;2023-05-14T03:14:32;10.80;92.90
9373;DHT22;10838;52.350;9.790;2023-05-14T03:16:58;10.70;92.90
9373;DHT22;10838;52.350;9.790;2023-05-14T03:19:25;10.70;92.90
9373;DHT22;10838;52.350;9.790;2023-05-14T03:21:53;10.70;92.90
9373;DHT22;10838;52.350;9.790;2023-05-14T03:24:19;10.70;92.90
9373;DHT22;10838;52.350;9.790;2023-05-14T03:26:46;10.70;93.00
9373;DHT22;10838;52.350;9.790;2023-05-14T03:29:12;10.60;93.00
9373;DHT22;10838;52.350;9.790;2023-05-14T03:31:42;10.60;93.00
9373;DHT22;10838;52.350;9.790;2023-05-14T03:34:08;10.60;93.00
9373;DHT22;10838;52.350;9.790;2023-05-14T03:36:35;10.50;93.00
9373;DHT22;10838;52.350;9.790;2023-05-14T03:39:05;10.50;93.00
9373;DHT22;10838;52.350;9.790;2023-05-14T03:41:32;10.50;93.00
9373;DHT22;10838;52.350;9.790;2023-05-14T03:43:59;10.50;93.00
9373;DHT22;10838;52.350;9.790;2023-05-14T03:46:25;10.50;93.00
9373;DHT22;10838;52.350;9.790;2023-05-14T03:48:52;10.40;93.00
9373;DHT22;10838;52.350;9.790;2023-05-14T03:51:19;10.40;93.00
9373;DHT22;10838;52.350;9.790;2023-05-14T03:53:45;10.40;93.10
9373;DHT22;10838;52.350;9.790;2023-05-14T03:56:13;10.40;93.10
9373;DHT22;10838;52.350;9.790;2023-05-14T03:58:40;10.30;93.10
9373;DHT22;10838;52.350;9.790;2023-05-14T04:01:07;10.30;93.10
9373;DHT22;10838;52.350;9.790;2023-05-14T04:03:33;10.30;93.20
9373;DHT22;10838;52.350;9.790;2023-05-14T04:06:00;10.30;93.10
9373;DHT22;10838;52.350;9.790;2023-05-14T04:08:27;10.30;93.20
9373;DHT22;10838;52.350;9.790;2023-05-14T04:10:53;10.30;93.20
9373;DHT22;10838;52.350;9.790;2023-05-14T04:13:21;10.30;93.20
9373;DHT22;10838;52.350;9.790;2023-05-14T04:15:48;10.30;93.20
9373;DHT22;10838;52.350;9.790;2023-05-14T04:18:14;10.30;93.20
9373;DHT22;10838;52.350;9.790;2023-05-14T04:20:41;10.20;93.20
9373;DHT22;10838;52.350;9.790;2023-05-14T04:23:08;10.20;93.20
9373;DHT22;10838;52.350;9.790;2023-05-14T04:25:34;10.20;93.20
9373;DHT22;10838;52.350;9.790;2023-05-14T04:28:01;10.20;93.30
9373;DHT22;10838;52.350;9.790;2023-05-14T04:30:29;10.20;93.30
9373;DHT22;10838;52.350;9.790;2023-05-14T04:32:55;10.20;93.30
9373;DHT22;10838;52.350;9.790;2023-05-14T04:35:23;10.20;93.40
9373;DHT22;10838;52.350;9.790;2023-05-14T04:37:49;10.20;93.40
9373;DHT22;10838;52.350;9.790;2023-05-14T04:40:16;10.20;93.40
9373;DHT22;10838;52.350;9.790;2023-05-14T04:42:43;10.20;93.50
9373;DHT22;10838;52.350;9.790;2023-05-14T04:45:10;10.20;93.50
9373;DHT22;10838;52.350;9.790;2023-05-14T04:47:39;10.20;93.50
9373;DHT22;10838;52.350;9.790;2023-05-14T04:50:07;10.20;93.60
9373;DHT22;10838;52.350;9.790;2023-05-14T04:52:34;10.30;93.70
9373;DHT22;10838;52.350;9.790;2023-05-14T04:55:01;10.20;93.70
9373;DHT22;10838;52.350;9.790;2023-05-14T04:57:27;10.30;93.80
9373;DHT22;10838;52.350;9.790;2023-05-14T04:59:54;10.30;93.90
9373;DHT22;10838;52.350;9.790;2023-05-14T05:02:20;10.30;93.90
9373;DHT22;10838;52.350;9.790;2023-05-14T05:04:48;10.30;94.00
9373;DHT22;10838;52.350;9.790;2023-05-14T05:07:15;10.40;94.10
9373;DHT22;10838;52.350;9.790;2023-05-14T05:09:42;10.40;94.20
9373;DHT22;10838;52.350;9.790;2023-05-14T05:12:09;10.50;94.30
9373;DHT22;10838;52.350;9.790;2023-05-14T05:14:35;10.50;94.40
9373;DHT22;10838;52.350;9.790;2023-05-14T05:17:02;10.60;94.50
9373;DHT22;10838;52.350;9.790;2023-05-14T05:19:29;10.60;94.60
9373;DHT22;10838;52.350;9.790;2023-05-14T05:21:57;10.70;94.70
9373;DHT22;10838;52.350;9.790;2023-05-14T05:24:23;10.80;94.80
9373;DHT22;10838;52.350;9.790;2023-05-14T05:26:50;10.80;94.90
9373;DHT22;10838;52.350;9.790;2023-05-14T05:29:18;10.90;94.90
9373;DHT22;10838;52.350;9.790;2023-05-14T05:31:44;10.90;95.00
9373;DHT22;10838;52.350;9.790;2023-05-14T05:34:11;11.00;95.10
9373;DHT22;10838;52.350;9.790;2023-05-14T05:36:38;11.10;95.20
9373;DHT22;10838;52.350;9.790;2023-05-14T05:39:06;11.20;95.30
9373;DHT22;10838;52.350;9.790;2023-05-14T05:41:32;11.20;95.30
9373;DHT22;10838;52.350;9.790;2023-05-14T05:43:59;11.30;95.40
9373;DHT22;10838;52.350;9.790;2023-05-14T05:46:25;11.50;95.40
9373;DHT22;10838;52.350;9.790;2023-05-14T05:48:52;11.60;95.50
9373;DHT22;10838;52.350;9.790;2023-05-14T05:51:19;11.80;95.50
9373;DHT22;10838;52.350;9.790;2023-05-14T05:53:45;12.00;95.50
9373;DHT22;10838;52.350;9.790;2023-05-14T05:56:14;12.20;95.50
9373;DHT22;10838;52.350;9.790;2023-05-14T05:58:40;12.50;95.50
9373;DHT22;10838;52.350;9.790;2023-05-14T06:01:07;12.80;95.50
9373;DHT22;10838;52.350;9.790;2023-05-14T06:03:33;13.00;95.40
9373;DHT22;10838;52.350;9.790;2023-05-14T06:06:00;13.30;95.40
9373;DHT22;10838;52.350;9.790;2023-05-14T06:08:27;13.60;95.40
9373;DHT22;10838;52.350;9.790;2023-05-14T06:10:53;13.90;95.30
9373;DHT22;10838;52.350;9.790;2023-05-14T06:13:21;14.20;95.20
9373;DHT22;10838;52.350;9.790;2023-05-14T06:15:48;14.40;95.20
9373;DHT22;10838;52.350;9.790;2023-05-14T06:18:14;14.70;95.20
9373;DHT22;10838;52.350;9.790;2023-05-14T06:20:41;15.00;95.10
9373;DHT22;10838;52.350;9.790;2023-05-14T06:23:07;15.20;95.10
9373;DHT22;10838;52.350;9.790;2023-05-14T06:25:36;15.50;95.00
9373;DHT22;10838;52.350;9.790;2023-05-14T06:28:03;15.70;94.90
9373;DHT22;10838;52.350;9.790;2023-05-14T06:30:31;16.00;94.90
9373;DHT22;10838;52.350;9.790;2023-05-14T06:32:57;16.20;94.80
9373;DHT22;10838;52.350;9.790;2023-05-14T06:35:24;16.40;94.70
9373;DHT22;10838;52.350;9.790;2023-05-14T06:37:50;16.60;94.60
9373;DHT22;10838;52.350;9.790;2023-05-14T06:40:17;16.80;94.50
9373;DHT22;10838;52.350;9.790;2023-05-14T06:42:44;17.10;94.40
9373;DHT22;10838;52.350;9.790;2023-05-14T06:45:10;17.30;94.40
9373;DHT22;10838;52.350;9.790;2023-05-14T06:47:38;17.50;94.20
9373;DHT22;10838;52.350;9.790;2023-05-14T06:50:06;17.80;94.20
9373;DHT22;10838;52.350;9.790;2023-05-14T06:52:32;18.00;94.10
9373;DHT22;10838;52.350;9.790;2023-05-14T06:54:59;18.20;93.90
9373;DHT22;10838;52.350;9.790;2023-05-14T06:57:25;18.40;93.90
9373;DHT22;10838;52.350;9.790;2023-05-14T06:59:52;18.60;93.90
9373;DHT22;10838;52.350;9.790;2023-05-14T07:02:18;18.90;93.80
9373;DHT22;10838;52.350;9.790;2023-05-14T07:04:46;19.10;93.80
9373;DHT22;10838;52.350;9.790;2023-05-14T07:07:13;19.30;93.60
9373;DHT22;10838;52.350;9.790;2023-05-14T07:09:42;19.50;93.60
9373;DHT22;10838;52.350;9.790;2023-05-14T07:12:09;19.70;93.60
9373;DHT22;10838;52.350;9.790;2023-05-14T07:14:36;19.90;93.50
9373;DHT22;10838;52.350;9.790;2023-05-14T07:17:03;20.10;93.40
9373;DHT22;10838;52.350;9.790;2023-05-14T07:19:29;20.30;93.40
9373;DHT22;10838;52.350;9.790;2023-05-14T07:21:57;20.40;93.30
9373;DHT22;10838;52.350;9.790;2023-05-14T07:24:24;20.60;93.30
9373;DHT22;10838;52.350;9.790;2023-05-14T07:26:51;20.80;93.20
9373;DHT22;10838;52.350;9.790;2023-05-14T07:29:18;20.90;93.20
9373;DHT22;10838;52.350;9.790;2023-05-14T07:31:45;21.10;93.10
9373;DHT22;10838;52.350;9.790;2023-05-14T07:34:11;21.20;92.90
9373;DHT22;10838;52.350;9.790;2023-05-14T07:36:38;21.40;93.00
9373;DHT22;10838;52.350;9.790;2023-05-14T07:39:06;21.50;93.00
9373;DHT22;10838;52.350;9.790;2023-05-14T07:41:33;21.70;92.80
9373;DHT22;10838;52.350;9.790;2023-05-14T07:44:00;21.80;92.80
9373;DHT22;10838;52.350;9.790;2023-05-14T07:46:26;22.00;92.70
9373;DHT22;10838;52.350;9.790;2023-05-14T07:48:53;22.10;92.70
9373;DHT22;10838;52.350;9.790;2023-05-14T07:51:20;22.20;92.50
9373;DHT22;10838;52.350;9.790;2023-05-14T07:53:47;22.30;92.50
9373;DHT22;10838;52.350;9.790;2023-05-14T07:56:15;22.40;92.40
9373;DHT22;10838;52.350;9.790;2023-05-14T07:58:41;22.50;92.40
9373;DHT22;10838;52.350;9.790;2023-05-14T08:01:08;22.50;92.40
9373;DHT22;10838;52.350;9.790;2023-05-14T08:03:35;22.70;92.30
9373;DHT22;10838;52.350;9.790;2023-05-14T08:06:01;22.80;92.20
9373;DHT22;10838;52.350;9.790;2023-05-14T08:08:28;22.90;92.10
9373;DHT22;10838;52.350;9.790;2023-05-14T08:10:54;23.00;92.00
9373;DHT22;10838;52.350;9.790;2023-05-14T08:13:22;23.20;91.90
9373;DHT22;10838;52.350;9.790;2023-05-14T08:15:49;23.30;91.90
9373;DHT22;10838;52.350;9.790;2023-05-14T08:18:15;23.40;91.70
9373;DHT22;10838;52.350;9.790;2023-05-14T08:20:42;23.50;91.50
9373;DHT22;10838;52.350;9.790;2023-05-14T08:23:08;23.60;91.50
9373;DHT22;10838;52.350;9.790;2023-05-14T08:25:35;23.70;91.60
9373;DHT22;10838;52.350;9.790;2023-05-14T08:28:02;23.80;91.50
9373;DHT22;10838;52.350;9.790;2023-05-14T08:30:30;23.90;91.60
9373;DHT22;10838;52.350;9.790;2023-05-14T08:32:57;24.00;91.50
9373;DHT22;10838;52.350;9.790;2023-05-14T08:35:24;24.10;91.20
9373;DHT22;10838;52.350;9.790;2023-05-14T08:37:50;24.10;91.10
9373;DHT22;10838;52.350;9.790;2023-05-14T08:40:17;24.20;91.00
9373;DHT22;10838;52.350;9.790;2023-05-14T08:42:44;24.20;90.80
9373;DHT22;10838;52.350;9.790;2023-05-14T08:45:16;24.20;90.70
9373;DHT22;10838;52.350;9.790;2023-05-14T08:47:47;24.20;90.60
9373;DHT22;10838;52.350;9.790;2023-05-14T08:50:14;24.20;90.60
9373;DHT22;10838;52.350;9.790;2023-05-14T08:52:41;24.20;90.50
9373;DHT22;10838;52.350;9.790;2023-05-14T08:55:09;24.30;90.60
9373;DHT22;10838;52.350;9.790;2023-05-14T08:57:37;24.40;90.70
9373;DHT22;10838;52.350;9.790;2023-05-14T09:00:05;24.50;90.60
9373;DHT22;10838;52.350;9.790;2023-05-14T09:02:33;24.50;90.60
9373;DHT22;10838;52.350;9.790;2023-05-14T09:05:02;24.60;90.50
9373;DHT22;10838;52.350;9.790;2023-05-14T09:07:29;24.60;90.60
9373;DHT22;10838;52.350;9.790;2023-05-14T09:09:55;24.60;90.50
9373;DHT22;10838;52.350;9.790;2023-05-14T09:12:22;24.60;90.60
9373;DHT22;10838;52.350;9.790;2023-05-14T09:14:49;24.60;90.60
9373;DHT22;10838;52.350;9.790;2023-05-14T09:17:16;24.60;90.20
9373;DHT22;10838;52.350;9.790;2023-05-14T09:19:43;24.60;90.20
9373;DHT22;10838;52.350;9.790;2023-05-14T09:22:14;24.60;90.30
9373;DHT22;10838;52.350;9.790;2023-05-14T09:24:42;24.70;90.20
9373;DHT22;10838;52.350;9.790;2023-05-14T09:27:14;24.70;90.20
9373;DHT22;10838;52.350;9.790;2023-05-14T09:29:41;24.80;90.20
9373;DHT22;10838;52.350;9.790;2023-05-14T09:32:07;24.80;90.10
9373;DHT22;10838;52.350;9.790;2023-05-14T09:34:35;24.80;90.20
9373;DHT22;10838;52.350;9.790;2023-05-14T09:37:04;24.80;90.30
9373;DHT22;10838;52.350;9.790;2023-05-14T09:39:33;24.70;90.30
9373;DHT22;10838;52.350;9.790;2023-05-14T09:42:00;24.80;90.30
9373;DHT22;10838;52.350;9.790;2023-05-14T09:44:27;24.80;90.30
9373;DHT22;10838;52.350;9.790;2023-05-14T09:46:55;24.80;90.00
9373;DHT22;10838;52.350;9.790;2023-05-14T09:49:22;24.90;90.10
9373;DHT22;10838;52.350;9.790;2023-05-14T09:51:48;24.90;90.00
9373;DHT22;10838;52.350;9.790;2023-05-14T09:54:15;24.90;90.00
9373;DHT22;10838;52.350;9.790;2023-05-14T09:56:43;24.90;89.80
9373;DHT22;10838;52.350;9.790;2023-05-14T09:59:10;24.80;89.50
9373;DHT22;10838;52.350;9.790;2023-05-14T10:01:37;24.90;89.90
9373;DHT22;10838;52.350;9.790;2023-05-14T10:04:06;24.90;89.80
9373;DHT22;10838;52.350;9.790;2023-05-14T10:06:36;24.70;89.60
9373;DHT22;10838;52.350;9.790;2023-05-14T10:09:07;24.70;88.80
9373;DHT22;10838;52.350;9.790;2023-05-14T10:11:37;24.60;88.90
9373;DHT22;10838;52.350;9.790;2023-05-14T10:14:08;24.60;89.20
9373;DHT22;10838;52.350;9.790;2023-05-14T10:16:40;24.60;89.00
9373;DHT22;10838;52.350;9.790;2023-05-14T10:19:09;24.60;88.60
9373;DHT22;10838;52.350;9.790;2023-05-14T10:21:37;24.60;88.70
9373;DHT22;10838;52.350;9.790;2023-05-14T10:24:07;24.50;88.50
9373;DHT22;10838;52.350;9.790;2023-05-14T10:26:35;24.50;88.70
9373;DHT22;10838;52.350;9.790;2023-05-14T10:29:05;24.40;88.60
9373;DHT22;10838;52.350;9.790;2023-05-14T10:31:45;24.40;88.50
9373;DHT22;10838;52.350;9.790;2023-05-14T10:34:30;24.30;88.30
9373;DHT22;10838;52.350;9.790;2023-05-14T10:36:58;24.20;87.30
9373;DHT22;10838;52.350;9.790;2023-05-14T10:39:43;24.10;87.20
9373;DHT22;10838;52.350;9.790;2023-05-14T10:42:10;24.00;87.50
9373;DHT22;10838;52.350;9.790;2023-05-14T10:44:44;24.00;87.40
9373;DHT22;10838;52.350;9.790;2023-05-14T10:47:12;24.00;87.90
9373;DHT22;10838;52.350;9.790;2023-05-14T10:49:40;24.00;88.00
9373;DHT22;10838;52.350;9.790;2023-05-14T10:52:07;24.00;88.00
9373;DHT22;10838;52.350;9.790;2023-05-14T10:54:34;24.00;87.90
9373;DHT22;10838;52.350;9.790;2023-05-14T10:57:02;23.90;87.90
9373;DHT22;10838;52.350;9.790;2023-05-14T10:59:28;23.90;88.20
9373;DHT22;10838;52.350;9.790;2023-05-14T11:01:57;23.90;88.60
9373;DHT22;10838;52.350;9.790;2023-05-14T11:04:23;24.00;88.50
9373;DHT22;10838;52.350;9.790;2023-05-14T11:06:51;24.10;88.60
9373;DHT22;10838;52.350;9.790;2023-05-14T11:09:20;24.10;88.10
9373;DHT22;10838;52.350;9.790;2023-05-14T11:11:46;24.20;87.90
9373;DHT22;10838;52.350;9.790;2023-05-14T11:14:13;24.20;87.90
9373;DHT22;10838;52.350;9.790;2023-05-14T11:16:40;24.30;87.60
9373;DHT22;10838;52.350;9.790;2023-05-14T11:19:08;24.30;87.80
9373;DHT22;10838;52.350;9.790;2023-05-14T11:21:34;24.40;88.10
9373;DHT22;10838;52.350;9.790;2023-05-14T11:24:01;24.40;88.00
9373;DHT22;10838;52.350;9.790;2023-05-14T11:26:30;24.50;88.10
9373;DHT22;10838;52.350;9.790;2023-05-14T11:28:57;24.60;88.00
9373;DHT22;10838;52.350;9.790;2023-05-14T11:31:24;24.60;87.90
9373;DHT22;10838;52.350;9.790;2023-05-14T11:33:51;24.60;87.40
9373;DHT22;10838;52.350;9.790;2023-05-14T11:36:20;24.50;87.40
9373;DHT22;10838;52.350;9.790;2023-05-14T11:38:47;24.50;87.80
9373;DHT22;10838;52.350;9.790;2023-05-14T11:41:15;24.50;87.90
9373;DHT22;10838;52.350;9.790;2023-05-14T11:43:42;24.50;88.00
9373;DHT22;10838;52.350;9.790;2023-05-14T11:46:15;24.50;88.00
9373;DHT22;10838;52.350;9.790;2023-05-14T11:48:42;24.60;87.90
9373;DHT22;10838;52.350;9.790;2023-05-14T11:51:08;24.60;88.10
9373;DHT22;10838;52.350;9.790;2023-05-14T11:53:36;24.60;88.00
9373;DHT22;10838;52.350;9.790;2023-05-14T11:56:03;24.60;87.40
9373;DHT22;10838;52.350;9.790;2023-05-14T11:58:31;24.50;87.50
9373;DHT22;10838;52.350;9.790;2023-05-14T12:00:58;24.50;87.60
9373;DHT22;10838;52.350;9.790;2023-05-14T12:03:25;24.40;87.60
9373;DHT22;10838;52.350;9.790;2023-05-14T12:05:55;24.30;87.40
9373;DHT22;10838;52.350;9.790;2023-05-14T12:08:25;24.30;87.80
9373;DHT22;10838;52.350;9.790;2023-05-14T12:10:53;24.20;87.90
9373;DHT22;10838;52.350;9.790;2023-05-14T12:13:20;24.20;87.50
9373;DHT22;10838;52.350;9.790;2023-05-14T12:15:47;24.20;87.80
9373;DHT22;10838;52.350;9.790;2023-05-14T12:18:19;24.20;87.70
9373;DHT22;10838;52.350;9.790;2023-05-14T12:20:46;24.20;87.70
9373;DHT22;10838;52.350;9.790;2023-05-14T12:23:13;24.20;87.60
9373;DHT22;10838;52.350;9.790;2023-05-14T12:25:44;24.20;87.60
9373;DHT22;10838;52.350;9.790;2023-05-14T12:28:16;24.20;88.00
9373;DHT22;10838;52.350;9.790;2023-05-14T12:30:43;24.20;87.40
9373;DHT22;10838;52.350;9.790;2023-05-14T12:33:09;24.20;87.00
9373;DHT22;10838;52.350;9.790;2023-05-14T12:35:36;24.20;86.80
9373;DHT22;10838;52.350;9.790;2023-05-14T12:38:03;24.20;86.70
9373;DHT22;10838;52.350;9.790;2023-05-14T12:40:29;24.20;86.60
9373;DHT22;10838;52.350;9.790;2023-05-14T12:42:56;24.10;86.10
9373;DHT22;10838;52.350;9.790;2023-05-14T12:45:24;24.10;86.10
9373;DHT22;10838;52.350;9.790;2023-05-14T12:47:50;24.00;85.90
9373;DHT22;10838;52.350;9.790;2023-05-14T12:50:17;23.90;86.00
9373;DHT22;10838;52.350;9.790;2023-05-14T12:52:43;23.90;86.10
9373;DHT22;10838;52.350;9.790;2023-05-14T12:55:10;23.90;86.20
9373;DHT22;10838;52.350;9.790;2023-05-14T12:57:37;23.90;86.10
9373;DHT22;10838;52.350;9.790;2023-05-14T13:00:05;23.80;85.90
9373;DHT22;10838;52.350;9.790;2023-05-14T13:02:33;23.70;86.10
9373;DHT22;10838;52.350;9.790;2023-05-14T13:05:00;23.70;86.30
9373;DHT22;10838;52.350;9.790;2023-05-14T13:07:28;23.70;86.30
9373;DHT22;10838;52.350;9.790;2023-05-14T13:09:55;23.80;86.70
9373;DHT22;10838;52.350;9.790;2023-05-14T13:12:22;23.80;86.70
9373;DHT22;10838;52.350;9.790;2023-05-14T13:14:49;23.80;86.70
9373;DHT22;10838;52.350;9.790;2023-05-14T13:17:16;23.90;86.70
9373;DHT22;10838;52.350;9.790;2023-05-14T13:19:43;23.90;86.60
9373;DHT22;10838;52.350;9.790;2023-05-14T13:22:10;23.80;86.80
9373;DHT22;10838;52.350;9.790;2023-05-14T13:24:36;23.90;87.20
9373;DHT22;10838;52.350;9.790;2023-05-14T13:27:03;23.90;87.30
9373;DHT22;10838;52.350;9.790;2023-05-14T13:29:30;24.00;87.50
9373;DHT22;10838;52.350;9.790;2023-05-14T13:31:57;24.00;87.60
9373;DHT22;10838;52.350;9.790;2023-05-14T13:34:23;24.10;87.40
9373;DHT22;10838;52.350;9.790;2023-05-14T13:36:51;24.10;86.80
9373;DHT22;10838;52.350;9.790;2023-05-14T13:39:17;24.10;86.70
9373;DHT22;10838;52.350;9.790;2023-05-14T13:41:47;24.10;87.00
9373;DHT22;10838;52.350;9.790;2023-05-14T13:44:15;24.10;87.30
9373;DHT22;10838;52.350;9.790;2023-05-14T13:46:42;24.10;87.20
9373;DHT22;10838;52.350;9.790;2023-05-14T13:49:08;24.20;87.20
9373;DHT22;10838;52.350;9.790;2023-05-14T13:51:35;24.30;87.30
9373;DHT22;10838;52.350;9.790;2023-05-14T13:54:03;24.40;87.20
9373;DHT22;10838;52.350;9.790;2023-05-14T13:56:30;24.40;87.00
9373;DHT22;10838;52.350;9.790;2023-05-14T13:58:56;24.40;86.70
9373;DHT22;10838;52.350;9.790;2023-05-14T14:01:23;24.30;86.50
9373;DHT22;10838;52.350;9.790;2023-05-14T14:03:49;24.20;86.70
9373;DHT22;10838;52.350;9.790;2023-05-14T14:06:16;24.10;86.50
9373;DHT22;10838;52.350;9.790;2023-05-14T14:08:43;24.00;86.60
9373;DHT22;10838;52.350;9.790;2023-05-14T14:11:10;23.80;86.70
9373;DHT22;10838;52.350;9.790;2023-05-14T14:13:38;23.60;87.00
9373;DHT22;10838;52.350;9.790;2023-05-14T14:16:05;23.50;87.10
9373;DHT22;10838;52.350;9.790;2023-05-14T14:18:32;23.40;86.80
9373;DHT22;10838;52.350;9.790;2023-05-14T14:20:59;23.20;86.70
9373;DHT22;10838;52.350;9.790;2023-05-14T14:23:25;23.10;86.80
9373;DHT22;10838;52.350;9.790;2023-05-14T14:25:52;23.00;87.00
9373;DHT22;10838;52.350;9.790;2023-05-14T14:28:20;23.00;87.20
9373;DHT22;10838;52.350;9.790;2023-05-14T14:30:46;23.10;87.30
9373;DHT22;10838;52.350;9.790;2023-05-14T14:33:13;23.10;87.20
9373;DHT22;10838;52.350;9.790;2023-05-14T14:35:41;23.10;87.20
9373;DHT22;10838;52.350;9.790;2023-05-14T14:38:07;23.00;87.10
9373;DHT22;10838;52.350;9.790;2023-05-14T14:40:34;23.10;87.10
9373;DHT22;10838;52.350;9.790;2023-05-14T14:43:00;23.00;86.90
9373;DHT22;10838;52.350;9.790;2023-05-14T14:45:28;23.00;87.00
9373;DHT22;10838;52.350;9.790;2023-05-14T14:48:23;23.00;86.90
9373;DHT22;10838;52.350;9.790;2023-05-14T14:50:50;22.90;87.00
9373;DHT22;10838;52.350;9.790;2023-05-14T14:53:17;22.80;87.00
9373;DHT22;10838;52.350;9.790;2023-05-14T14:55:44;22.80;87.10
9373;DHT22;10838;52.350;9.790;2023-05-14T14:58:10;22.80;87.20
9373;DHT22;10838;52.350;9.790;2023-05-14T15:00:38;22.80;86.90
9373;DHT22;10838;52.350;9.790;2023-05-14T15:03:05;22.80;87.00
9373;DHT22;10838;52.350;9.790;2023-05-14T15:05:33;22.80;87.00
9373;DHT22;10838;52.350;9.790;2023-05-14T15:07:59;22.90;86.90
9373;DHT22;10838;52.350;9.790;2023-05-14T15:10:26;22.90;87.00
9373;DHT22;10838;52.350;9.790;2023-05-14T15:12:55;22.80;87.00
9373;DHT22;10838;52.350;9.790;2023-05-14T15:15:22;22.80;87.10
9373;DHT22;10838;52.350;9.790;2023-05-14T15:17:50;22.80;87.30
9373;DHT22;10838;52.350;9.790;2023-05-14T15:20:17;22.80;87.30
9373;DHT22;10838;52.350;9.790;2023-05-14T15:22:43;22.80;87.60
9373;DHT22;10838;52.350;9.790;2023-05-14T15:25:10;22.90;87.70
9373;DHT22;10838;52.350;9.790;2023-05-14T15:27:36;23.00;87.50
9373;DHT22;10838;52.350;9.790;2023-05-14T15:30:04;23.00;87.20
9373;DHT22;10838;52.350;9.790;2023-05-14T15:32:31;23.00;87.10
9373;DHT22;10838;52.350;9.790;2023-05-14T15:35:00;23.00;87.10
9373;DHT22;10838;52.350;9.790;2023-05-14T15:37:26;22.90;86.90
9373;DHT22;10838;52.350;9.790;2023-05-14T15:39:53;22.90;87.10
9373;DHT22;10838;52.350;9.790;2023-05-14T15:42:19;22.90;87.20
9373;DHT22;10838;52.350;9.790;2023-05-14T15:44:46;22.90;87.30